Time;durP1;ratioP1;P1;durP2;ratioP2;P2;SDS_P1;SDS_P2;PMS_P1;PMS_P2;Temp;Humidity;BMP_temperature;BMP_pressure;BME280_temperature;BME280_humidity;BME280_pressure;Samples;Min_cycle;Max_cycle;Signal;HPM_P1;HPM_P2
2021/06/20 00:01:55;;;;;;;20.40;10.50;;;29.40;40.80;;;;;;5054271;28;20452;-86
2021/06/20 00:04:22;;;;;;;22.93;10.10;;;29.10;41.70;;;;;;5058423;28;20468;-86
2021/06/20 00:06:51;;;;;;;16.53;10.27;;;29.00;42.70;;;;;;5060026;28;20531;-87
2021/06/20 00:09:20;;;;;;;27.20;10.60;;;28.90;42.90;;;;;;5059739;28;20448;-87
2021/06/20 00:11:49;;;;;;;21.70;11.60;;;29.10;42.10;;;;;;5059548;28;20914;-87
2021/06/20 00:14:18;;;;;;;16.00;8.60;;;29.10;42.00;;;;;;5059561;28;20488;-87
2021/06/20 00:16:45;;;;;;;21.00;10.50;;;29.20;41.40;;;;;;5062767;28;20484;-87
2021/06/20 00:19:13;;;;;;;15.37;8.93;;;29.40;40.90;;;;;;5063170;28;20456;-88
2021/06/20 00:21:40;;;;;;;17.63;9.93;;;29.30;41.30;;;;;;5059785;28;20468;-87
2021/06/20 00:24:08;;;;;;;26.10;10.27;;;29.10;42.00;;;;;;5060734;28;20523;-87
2021/06/20 00:26:35;;;;;;;19.43;11.07;;;28.70;43.30;;;;;;5066258;28;20456;-87
2021/06/20 00:29:02;;;;;;;25.43;11.40;;;28.90;42.90;;;;;;5074753;28;20428;-88
2021/06/20 00:31:31;;;;;;;20.20;9.73;;;28.50;43.70;;;;;;5073982;28;20444;-88
2021/06/20 00:33:58;;;;;;;16.60;9.67;;;28.40;44.10;;;;;;5075188;28;20460;-87
2021/06/20 00:36:24;;;;;;;22.73;12.53;;;28.50;44.20;;;;;;5075515;28;20479;-88
2021/06/20 00:38:51;;;;;;;19.03;9.87;;;28.40;44.20;;;;;;5065590;28;20440;-87
2021/06/20 00:41:18;;;;;;;20.90;10.27;;;28.50;44.20;;;;;;5066218;28;20456;-85
2021/06/20 00:43:45;;;;;;;24.23;10.53;;;28.60;44.20;;;;;;5066536;28;20440;-88
2021/06/20 00:46:12;;;;;;;19.03;9.63;;;28.40;44.30;;;;;;5070600;28;20460;-85
2021/06/20 00:48:40;;;;;;;20.10;11.20;;;28.40;44.70;;;;;;5069148;28;20440;-87
2021/06/20 00:51:07;;;;;;;25.20;9.70;;;28.40;44.70;;;;;;5067311;28;20441;-86
2021/06/20 00:53:36;;;;;;;19.53;10.17;;;28.40;44.90;;;;;;5063141;28;20531;-87
2021/06/20 00:56:03;;;;;;;19.17;10.10;;;28.30;45.20;;;;;;5061924;28;20466;-88
2021/06/20 00:58:31;;;;;;;23.30;10.70;;;28.40;45.30;;;;;;5061640;28;20539;-87
2021/06/20 01:00:57;;;;;;;20.90;10.80;;;28.30;45.80;;;;;;5063995;28;20436;-86
2021/06/20 01:03:24;;;;;;;28.13;10.60;;;28.20;46.10;;;;;;5067735;28;20432;-86
2021/06/20 01:05:53;;;;;;;21.40;10.70;;;28.10;45.80;;;;;;5066824;28;20471;-87
2021/06/20 01:08:20;;;;;;;30.73;12.80;;;28.10;46.00;;;;;;5066176;28;20440;-87
2021/06/20 01:10:47;;;;;;;32.93;10.53;;;27.70;47.40;;;;;;5061698;28;20492;-87
2021/06/20 01:13:16;;;;;;;29.60;11.63;;;27.50;48.00;;;;;;5045537;28;20460;-87
2021/06/20 01:15:45;;;;;;;17.67;11.93;;;27.30;48.40;;;;;;5048738;28;20460;-86
2021/06/20 01:18:13;;;;;;;34.57;10.60;;;27.40;48.40;;;;;;5058676;28;20533;-87
2021/06/20 01:20:40;;;;;;;30.10;9.90;;;27.40;48.10;;;;;;5058302;28;20452;-86
2021/06/20 01:23:09;;;;;;;24.40;10.80;;;27.20;48.50;;;;;;5064981;28;20506;-87
2021/06/20 01:25:38;;;;;;;28.77;9.60;;;27.10;48.50;;;;;;5074006;28;20533;-86
2021/06/20 01:28:07;;;;;;;21.23;10.57;;;27.20;47.90;;;;;;5055766;28;20437;-87
2021/06/20 01:30:36;;;;;;;41.80;11.07;;;27.20;48.00;;;;;;5037657;28;20772;-87
2021/06/20 01:33:06;;;;;;;22.47;11.23;;;27.30;48.10;;;;;;5045130;28;20532;-87
2021/06/20 01:35:33;;;;;;;25.70;11.70;;;27.40;47.70;;;;;;5038569;28;20475;-87
2021/06/20 01:38:00;;;;;;;23.03;9.50;;;27.30;47.90;;;;;;5057018;28;20982;-87
2021/06/20 01:40:29;;;;;;;22.23;11.00;;;27.20;48.00;;;;;;5065577;28;20861;-87
2021/06/20 01:42:57;;;;;;;37.90;13.10;;;27.40;47.70;;;;;;5072189;28;20474;-87
2021/06/20 01:45:26;;;;;;;27.57;11.53;;;27.50;47.00;;;;;;5064092;28;20563;-87
2021/06/20 01:47:55;;;;;;;37.03;11.73;;;27.60;46.60;;;;;;5051960;28;20515;-87
2021/06/20 01:50:22;;;;;;;19.87;9.80;;;27.80;46.20;;;;;;5054943;28;20492;-87
2021/06/20 01:53:00;;;;;;;32.87;10.23;;;27.90;45.60;;;;;;5045813;28;20910;-87
2021/06/20 01:55:28;;;;;;;37.70;10.30;;;28.00;45.10;;;;;;5058169;28;20546;-87
2021/06/20 01:57:55;;;;;;;30.87;9.23;;;28.10;44.80;;;;;;5056667;28;20471;-87
2021/06/20 02:00:22;;;;;;;36.37;10.20;;;28.00;44.80;;;;;;5056107;28;20464;-86
2021/06/20 02:02:49;;;;;;;23.00;10.47;;;28.10;44.70;;;;;;5055084;28;20539;-87
2021/06/20 02:05:16;;;;;;;42.57;11.13;;;28.00;44.20;;;;;;5055541;28;20472;-87
2021/06/20 02:07:43;;;;;;;29.20;11.93;;;28.10;44.20;;;;;;5055973;28;20548;-87
2021/06/20 02:10:12;;;;;;;39.73;9.90;;;28.20;44.00;;;;;;5057885;28;20543;-87
2021/06/20 02:12:41;;;;;;;28.37;10.07;;;28.20;44.00;;;;;;5055948;28;20491;-87
2021/06/20 02:15:11;;;;;;;31.47;10.90;;;28.00;43.80;;;;;;5057827;28;20456;-86
2021/06/20 02:17:38;;;;;;;33.37;10.73;;;28.10;44.00;;;;;;5056559;28;20491;-87
2021/06/20 02:20:08;;;;;;;41.27;9.90;;;28.00;43.80;;;;;;5057223;28;20984;-87
2021/06/20 02:22:35;;;;;;;34.97;9.10;;;28.00;43.60;;;;;;5058628;28;20465;-87
2021/06/20 02:25:02;;;;;;;58.27;10.50;;;27.80;43.80;;;;;;5057942;28;20933;-87
2021/06/20 02:27:29;;;;;;;41.50;9.80;;;27.80;43.70;;;;;;5039856;28;20842;-87
2021/06/20 02:29:57;;;;;;;31.23;9.70;;;27.90;43.80;;;;;;5049917;28;20448;-87
2021/06/20 02:32:26;;;;;;;31.20;8.83;;;27.70;43.70;;;;;;5057574;28;20535;-87
2021/06/20 02:34:54;;;;;;;36.80;9.77;;;27.80;43.70;;;;;;5057774;28;20472;-87
2021/06/20 02:37:22;;;;;;;39.57;10.87;;;27.80;43.70;;;;;;5057703;28;20480;-87
2021/06/20 02:39:49;;;;;;;48.27;9.80;;;27.80;43.70;;;;;;5046601;28;20441;-87
2021/06/20 02:42:16;;;;;;;33.57;9.40;;;27.70;43.60;;;;;;5056781;28;20452;-87
2021/06/20 02:44:45;;;;;;;40.17;9.23;;;27.70;43.70;;;;;;5040882;28;20433;-87
2021/06/20 02:47:13;;;;;;;53.20;10.00;;;27.60;43.60;;;;;;5049802;28;20469;-87
2021/06/20 02:49:41;;;;;;;35.73;9.43;;;27.70;43.20;;;;;;5058508;28;20468;-87
2021/06/20 02:52:10;;;;;;;35.90;9.10;;;27.60;43.60;;;;;;5064582;28;20476;-87
2021/06/20 02:54:37;;;;;;;46.47;11.67;;;27.60;43.20;;;;;;5062210;28;21005;-87
2021/06/20 02:57:06;;;;;;;42.97;10.50;;;27.70;43.10;;;;;;5060299;28;20892;-87
2021/06/20 02:59:33;;;;;;;48.93;11.53;;;27.90;42.70;;;;;;5061917;28;20432;-87
2021/06/20 03:02:00;;;;;;;50.87;10.90;;;28.00;42.40;;;;;;5076812;28;20451;-88
2021/06/20 03:04:28;;;;;;;40.87;9.27;;;27.70;42.60;;;;;;5061435;28;20979;-87
2021/06/20 03:06:55;;;;;;;53.83;9.20;;;27.80;42.50;;;;;;5061629;28;20484;-87
2021/06/20 03:09:22;;;;;;;45.30;9.70;;;27.90;42.00;;;;;;5061930;28;20494;-87
2021/06/20 03:11:49;;;;;;;40.50;9.37;;;27.90;42.10;;;;;;5060239;28;20498;-87
2021/06/20 03:14:16;;;;;;;41.67;9.20;;;28.00;41.70;;;;;;5062872;28;20476;-86
2021/06/20 03:16:44;;;;;;;33.80;9.17;;;28.00;41.60;;;;;;5070980;28;20467;-89
2021/06/20 03:19:12;;;;;;;36.13;8.63;;;28.10;41.60;;;;;;5059996;28;20479;-88
2021/06/20 03:21:41;;;;;;;40.17;11.07;;;28.20;41.40;;;;;;5061355;28;20509;-88
2021/06/20 03:24:08;;;;;;;59.47;9.20;;;28.10;41.30;;;;;;5061718;28;20468;-87
2021/06/20 03:26:36;;;;;;;41.90;9.47;;;27.80;41.70;;;;;;5062020;28;20592;-87
2021/06/20 03:29:04;;;;;;;42.70;8.40;;;27.60;42.40;;;;;;5060536;28;20468;-87
2021/06/20 03:31:31;;;;;;;48.13;9.57;;;27.60;42.30;;;;;;5061393;28;20472;-88
2021/06/20 03:33:59;;;;;;;40.40;9.33;;;27.60;42.10;;;;;;5062563;28;20468;-87
2021/06/20 03:36:26;;;;;;;49.47;10.13;;;27.80;41.90;;;;;;5062603;28;20475;-88
2021/06/20 03:38:54;;;;;;;35.80;8.07;;;27.60;42.30;;;;;;5063648;28;20471;-88
2021/06/20 03:41:21;;;;;;;43.80;9.37;;;27.60;42.30;;;;;;5065393;28;20447;-87
2021/06/20 03:43:48;;;;;;;59.80;8.93;;;27.40;43.00;;;;;;5062394;28;20464;-87
2021/06/20 03:46:18;;;;;;;34.30;8.40;;;27.40;43.30;;;;;;5063355;28;20895;-86
2021/06/20 03:48:45;;;;;;;35.10;9.27;;;27.60;42.50;;;;;;5061695;28;20518;-88
2021/06/20 03:51:12;;;;;;;40.33;7.53;;;27.40;42.30;;;;;;5064874;28;20938;-87
2021/06/20 03:53:39;;;;;;;40.70;7.67;;;27.60;41.90;;;;;;5064126;28;20463;-86
2021/06/20 03:56:08;;;;;;;41.20;7.30;;;27.70;41.60;;;;;;5059386;28;20471;-87
2021/06/20 03:58:35;;;;;;;49.70;9.80;;;27.80;41.60;;;;;;5079762;28;20460;-88
2021/06/20 04:01:02;;;;;;;46.73;7.30;;;27.80;41.50;;;;;;5075542;28;20460;-87
2021/06/20 04:03:29;;;;;;;35.80;8.30;;;28.00;40.80;;;;;;5072414;28;20440;-88
2021/06/20 04:05:56;;;;;;;36.27;7.03;;;28.10;40.10;;;;;;5068968;28;20495;-88
2021/06/20 04:08:23;;;;;;;48.47;7.03;;;27.80;40.30;;;;;;5080744;28;20436;-86
2021/06/20 04:10:50;;;;;;;25.47;6.10;;;27.40;39.80;;;;;;5080915;28;20502;-86
2021/06/20 04:13:18;;;;;;;23.63;6.63;;;27.10;39.80;;;;;;5080777;28;20431;-86
2021/06/20 04:15:45;;;;;;;48.20;6.97;;;27.30;39.50;;;;;;5077252;28;20476;-87
2021/06/20 04:18:12;;;;;;;37.30;7.00;;;27.40;39.50;;;;;;5066309;28;20503;-87
2021/06/20 04:20:40;;;;;;;46.27;6.23;;;27.50;39.60;;;;;;5068441;28;20491;-86
2021/06/20 04:23:07;;;;;;;26.60;7.17;;;27.70;40.10;;;;;;5067857;28;20437;-86
2021/06/20 04:25:34;;;;;;;37.97;8.50;;;27.70;39.20;;;;;;5051800;28;20525;-88
2021/06/20 04:28:01;;;;;;;33.13;7.43;;;27.50;39.70;;;;;;5059916;28;20829;-86
2021/06/20 04:30:29;;;;;;;43.60;6.67;;;27.50;39.80;;;;;;5070776;28;20460;-87
2021/06/20 04:32:56;;;;;;;35.80;7.30;;;27.70;39.50;;;;;;5068944;28;20518;-88
2021/06/20 04:35:24;;;;;;;27.47;5.60;;;27.90;39.00;;;;;;5066917;28;20459;-87
2021/06/20 04:37:51;;;;;;;22.10;5.70;;;28.20;38.90;;;;;;5066254;28;20468;-88
2021/06/20 04:40:20;;;;;;;31.40;7.30;;;28.20;38.90;;;;;;5069346;28;20581;-88
2021/06/20 04:42:54;;;;;;;34.90;6.17;;;28.10;39.10;;;;;;5067804;28;20448;-87
2021/06/20 04:45:22;;;;;;;29.73;5.97;;;28.30;38.90;;;;;;5068964;28;20472;-86
2021/06/20 04:47:51;;;;;;;22.20;6.07;;;28.40;39.10;;;;;;5061978;28;20448;-88
2021/06/20 04:50:18;;;;;;;21.93;5.80;;;28.50;38.70;;;;;;5067831;28;20460;-88
2021/06/20 04:52:45;;;;;;;36.30;6.30;;;28.40;38.70;;;;;;5072263;28;20444;-87
2021/06/20 04:55:13;;;;;;;33.83;5.53;;;28.50;38.80;;;;;;5071140;28;20459;-88
2021/06/20 04:57:40;;;;;;;32.03;6.67;;;28.40;39.10;;;;;;5060862;28;20476;-88
2021/06/20 05:00:09;;;;;;;35.53;6.27;;;28.40;39.00;;;;;;5061262;28;20484;-87
2021/06/20 05:02:37;;;;;;;34.03;6.57;;;28.30;39.60;;;;;;5063197;28;20860;-86
2021/06/20 05:05:07;;;;;;;26.30;5.27;;;28.40;39.50;;;;;;5063687;28;20476;-86
2021/06/20 05:07:34;;;;;;;27.87;5.90;;;28.40;39.30;;;;;;5068954;28;20447;-87
2021/06/20 05:10:00;;;;;;;22.47;6.50;;;28.20;39.30;;;;;;5069730;28;20498;-88
2021/06/20 05:12:28;;;;;;;26.57;6.30;;;28.20;39.20;;;;;;5071790;28;20451;-87
2021/06/20 05:14:55;;;;;;;20.00;5.20;;;28.60;38.60;;;;;;5072350;28;20456;-87
2021/06/20 05:17:23;;;;;;;31.70;6.50;;;29.10;37.60;;;;;;5068491;28;20445;-87
2021/06/20 05:19:50;;;;;;;25.87;5.73;;;29.40;37.30;;;;;;5068360;28;20502;-87
2021/06/20 05:22:19;;;;;;;25.53;5.20;;;29.60;37.00;;;;;;5070923;28;20463;-87
2021/06/20 05:24:46;;;;;;;23.07;5.97;;;29.80;36.50;;;;;;5069428;28;20464;-87
2021/06/20 05:27:13;;;;;;;35.67;6.27;;;29.70;36.40;;;;;;5069775;28;20821;-87
2021/06/20 05:29:40;;;;;;;21.07;6.13;;;29.80;36.20;;;;;;5067175;28;20471;-88
2021/06/20 05:32:08;;;;;;;35.57;6.20;;;29.90;35.80;;;;;;5068494;28;20463;-87
2021/06/20 05:34:35;;;;;;;40.40;6.50;;;30.00;36.00;;;;;;5062814;28;20802;-87
2021/06/20 05:37:02;;;;;;;22.50;6.63;;;30.20;35.60;;;;;;5064574;28;20551;-88
2021/06/20 05:39:30;;;;;;;33.57;6.30;;;30.20;35.60;;;;;;5066199;28;20559;-87
2021/06/20 05:41:57;;;;;;;34.27;6.00;;;30.30;35.50;;;;;;5065864;28;20458;-88
2021/06/20 05:44:24;;;;;;;37.97;5.40;;;30.40;35.00;;;;;;5067483;28;20566;-88
2021/06/20 05:46:51;;;;;;;26.13;4.73;;;30.50;34.50;;;;;;5066892;28;20479;-87
2021/06/20 05:49:18;;;;;;;24.97;6.43;;;30.70;34.40;;;;;;5066497;28;20464;-86
2021/06/20 05:51:45;;;;;;;27.53;4.80;;;30.90;34.80;;;;;;5064159;28;20522;-86
2021/06/20 05:54:12;;;;;;;30.47;5.70;;;31.50;33.00;;;;;;5068501;28;20471;-87
2021/06/20 05:56:41;;;;;;;22.20;6.27;;;31.70;31.80;;;;;;5067207;28;20464;-89
2021/06/20 05:59:08;;;;;;;32.73;4.90;;;32.10;31.60;;;;;;5064419;28;20476;-86
2021/06/20 06:01:35;;;;;;;22.93;6.23;;;32.40;31.80;;;;;;5067269;28;20456;-88
2021/06/20 06:04:02;;;;;;;25.10;4.80;;;32.20;31.70;;;;;;5065341;28;20500;-88
2021/06/20 06:06:29;;;;;;;16.07;4.20;;;32.50;31.20;;;;;;5062748;28;20491;-88
2021/06/20 06:08:56;;;;;;;20.57;4.53;;;32.60;30.90;;;;;;5063111;28;20453;-87
2021/06/20 06:11:23;;;;;;;30.93;4.83;;;32.50;31.70;;;;;;5088020;22;20546;-85
2021/06/20 06:13:52;;;;;;;27.60;4.57;;;32.30;31.70;;;;;;5062739;28;20452;-84
2021/06/20 06:16:19;;;;;;;22.17;4.87;;;32.30;31.70;;;;;;5068508;28;20445;-85
2021/06/20 06:18:45;;;;;;;23.73;5.13;;;32.80;30.70;;;;;;5070704;28;20488;-86
2021/06/20 06:21:12;;;;;;;18.00;5.10;;;33.00;30.00;;;;;;5072814;28;20569;-85
2021/06/20 06:23:40;;;;;;;36.20;7.10;;;33.20;30.00;;;;;;5064894;28;20484;-85
2021/06/20 06:26:07;;;;;;;24.50;4.33;;;33.00;30.30;;;;;;5065058;28;20491;-86
2021/06/20 06:28:34;;;;;;;30.60;4.77;;;33.10;29.10;;;;;;5077530;28;20457;-85
2021/06/20 06:31:02;;;;;;;22.57;4.07;;;33.20;30.70;;;;;;5065421;28;20887;-85
2021/06/20 06:33:30;;;;;;;30.80;6.07;;;33.50;30.00;;;;;;5067815;28;20460;-85
2021/06/20 06:35:57;;;;;;;14.53;4.87;;;33.30;30.20;;;;;;5067156;28;20456;-85
2021/06/20 06:38:23;;;;;;;21.47;5.63;;;33.20;29.40;;;;;;5060589;28;20537;-86
2021/06/20 06:40:50;;;;;;;32.67;6.10;;;33.30;29.70;;;;;;5066350;28;20516;-85
2021/06/20 06:43:17;;;;;;;24.00;4.73;;;32.90;30.00;;;;;;5066723;28;20436;-84
2021/06/20 06:45:44;;;;;;;16.70;3.90;;;32.20;31.20;;;;;;5068302;28;20448;-85
2021/06/20 06:48:13;;;;;;;23.87;4.67;;;32.10;31.60;;;;;;5062423;28;20455;-84
2021/06/20 06:50:40;;;;;;;20.40;3.73;;;31.90;31.50;;;;;;5066997;28;20436;-85
2021/06/20 06:53:07;;;;;;;21.67;4.40;;;31.60;31.60;;;;;;5065491;28;20464;-83
2021/06/20 06:55:34;;;;;;;32.63;5.90;;;31.40;32.10;;;;;;5064914;28;20557;-84
2021/06/20 06:58:01;;;;;;;27.33;5.30;;;31.20;32.90;;;;;;5067665;28;20518;-84
2021/06/20 07:00:29;;;;;;;19.93;4.77;;;31.10;33.10;;;;;;5068997;28;20455;-84
2021/06/20 07:02:56;;;;;;;16.87;4.20;;;31.00;32.90;;;;;;5088547;28;20909;-84
2021/06/20 07:05:26;;;;;;;21.87;4.40;;;30.90;33.30;;;;;;5092252;28;20447;-84
2021/06/20 07:07:53;;;;;;;25.57;4.93;;;30.70;33.40;;;;;;5085010;28;20476;-84
2021/06/20 07:10:20;;;;;;;22.67;5.07;;;30.80;32.90;;;;;;5069974;28;20444;-86
2021/06/20 07:12:47;;;;;;;18.90;4.77;;;30.50;32.50;;;;;;5069958;28;20471;-85
2021/06/20 07:15:15;;;;;;;27.90;4.40;;;30.40;32.70;;;;;;5075684;28;20431;-84
2021/06/20 07:17:42;;;;;;;13.87;4.40;;;30.20;32.80;;;;;;5074618;28;20436;-85
2021/06/20 07:20:15;;;;;;;23.20;3.90;;;30.40;32.00;;;;;;5073805;28;20491;-86
2021/06/20 07:22:44;;;;;;;24.57;3.90;;;30.30;33.00;;;;;;5068055;28;20469;-85
2021/06/20 07:25:12;;;;;;;18.77;4.03;;;30.00;33.30;;;;;;5069164;28;20466;-85
2021/06/20 07:27:39;;;;;;;31.13;4.50;;;29.60;33.90;;;;;;5067527;28;20433;-85
2021/06/20 07:30:10;;;;;;;26.27;4.70;;;29.60;34.00;;;;;;5066745;28;20436;-85
2021/06/20 07:32:37;;;;;;;23.20;4.87;;;29.70;34.30;;;;;;5065893;28;20472;-84
2021/06/20 07:35:05;;;;;;;24.53;5.37;;;29.70;34.20;;;;;;5068232;28;20469;-84
2021/06/20 07:37:32;;;;;;;17.67;4.30;;;29.80;34.50;;;;;;5067146;28;20450;-85
2021/06/20 07:40:02;;;;;;;20.83;4.33;;;29.70;34.70;;;;;;5068529;28;20661;-85
2021/06/20 07:42:29;;;;;;;11.57;3.80;;;29.70;35.00;;;;;;5069190;28;20491;-85
2021/06/20 07:44:56;;;;;;;12.57;3.40;;;29.90;34.40;;;;;;5068850;28;20478;-85
2021/06/20 07:47:23;;;;;;;20.63;4.80;;;29.90;33.90;;;;;;5068160;28;20460;-86
2021/06/20 07:49:50;;;;;;;12.20;3.90;;;30.00;34.00;;;;;;5065640;28;20458;-86
2021/06/20 07:52:17;;;;;;;8.20;3.40;;;30.10;34.00;;;;;;5070661;28;20467;-86
2021/06/20 07:54:50;;;;;;;22.47;3.93;;;30.10;34.30;;;;;;5083830;28;20447;-86
2021/06/20 07:57:19;;;;;;;17.43;3.57;;;30.20;32.90;;;;;;5066817;28;20491;-85
2021/06/20 07:59:46;;;;;;;20.30;3.30;;;30.30;32.70;;;;;;5060641;28;20476;-85
2021/06/20 08:02:13;;;;;;;11.93;3.17;;;30.30;32.30;;;;;;5061492;28;20488;-85
2021/06/20 08:04:40;;;;;;;15.07;3.20;;;30.40;32.30;;;;;;5060479;28;20468;-85
2021/06/20 08:07:07;;;;;;;19.70;3.63;;;30.50;32.00;;;;;;5060644;28;20771;-84
2021/06/20 08:09:34;;;;;;;14.33;3.47;;;30.20;32.70;;;;;;5065894;28;20466;-85
2021/06/20 08:12:02;;;;;;;13.33;3.00;;;30.10;32.30;;;;;;5068290;28;20468;-85
2021/06/20 08:14:31;;;;;;;13.50;3.37;;;30.00;31.80;;;;;;5064287;28;20467;-85
2021/06/20 08:16:58;;;;;;;7.57;3.10;;;30.10;31.80;;;;;;5061312;28;20480;-85
2021/06/20 08:19:25;;;;;;;15.13;4.10;;;30.30;31.00;;;;;;5061122;28;20495;-84
2021/06/20 08:21:52;;;;;;;15.90;3.53;;;29.90;32.10;;;;;;5059818;28;20503;-84
2021/06/20 08:24:19;;;;;;;8.90;3.07;;;30.00;32.20;;;;;;5062298;28;20486;-84
2021/06/20 08:26:46;;;;;;;8.93;3.57;;;30.20;32.30;;;;;;5079209;28;20439;-85
2021/06/20 08:29:14;;;;;;;16.67;3.13;;;30.40;32.00;;;;;;5091160;28;20443;-85
2021/06/20 08:31:43;;;;;;;11.53;3.67;;;30.80;32.10;;;;;;5070007;28;20480;-85
2021/06/20 08:34:10;;;;;;;11.53;3.30;;;30.90;32.10;;;;;;5064548;28;20476;-84
2021/06/20 08:36:38;;;;;;;18.83;4.10;;;31.30;31.90;;;;;;5061313;28;20458;-85
2021/06/20 08:39:07;;;;;;;13.53;3.73;;;31.60;31.20;;;;;;5063902;28;20480;-85
2021/06/20 08:41:39;;;;;;;8.77;3.07;;;31.50;31.20;;;;;;5059197;28;20491;-85
2021/06/20 08:44:15;;;;;;;31.77;5.53;;;31.60;31.30;;;;;;5059103;28;20483;-83
2021/06/20 08:46:44;;;;;;;11.60;2.90;;;31.80;31.40;;;;;;5044453;28;20957;-85
2021/06/20 08:49:12;;;;;;;10.40;3.33;;;31.80;29.70;;;;;;5057832;28;20460;-85
2021/06/20 08:51:39;;;;;;;8.77;3.27;;;31.80;29.50;;;;;;5065517;28;20484;-86
2021/06/20 08:54:06;;;;;;;23.10;3.57;;;31.90;29.60;;;;;;5066636;28;20449;-85
2021/06/20 08:56:34;;;;;;;6.80;3.10;;;31.80;30.10;;;;;;5064804;28;20444;-85
2021/06/20 08:59:04;;;;;;;15.57;3.67;;;31.90;29.90;;;;;;5061712;28;20468;-84
2021/06/20 09:01:31;;;;;;;8.83;3.37;;;31.70;30.20;;;;;;5063309;28;20472;-84
2021/06/20 09:03:59;;;;;;;12.43;2.70;;;31.50;30.90;;;;;;5058922;28;20513;-84
2021/06/20 09:06:27;;;;;;;15.50;3.10;;;31.70;30.50;;;;;;5037780;28;20981;-84
2021/06/20 09:08:55;;;;;;;8.80;3.07;;;31.90;29.90;;;;;;5055669;28;20483;-84
2021/06/20 09:11:25;;;;;;;18.13;4.00;;;32.00;29.90;;;;;;5055687;28;20575;-84
2021/06/20 09:13:59;;;;;;;12.33;3.70;;;32.10;29.70;;;;;;5055803;28;20875;-84
2021/06/20 09:16:26;;;;;;;11.20;2.60;;;32.10;30.00;;;;;;5055376;28;20487;-85
2021/06/20 09:18:53;;;;;;;15.87;3.23;;;32.20;30.10;;;;;;5065034;28;20563;-85
2021/06/20 09:21:24;;;;;;;9.97;3.30;;;32.30;29.70;;;;;;5052360;28;20545;-85
2021/06/20 09:23:51;;;;;;;16.70;3.00;;;32.30;29.50;;;;;;5055246;28;20453;-85
2021/06/20 09:26:19;;;;;;;8.43;3.37;;;31.90;30.10;;;;;;5057983;28;20502;-85
2021/06/20 09:28:48;;;;;;;30.63;3.50;;;32.10;29.80;;;;;;5052039;28;20466;-86
2021/06/20 09:31:15;;;;;;;21.67;6.37;;;32.40;29.60;;;;;;5056106;28;20999;-85
2021/06/20 09:33:42;;;;;;;17.63;3.80;;;32.20;30.20;;;;;;5056225;28;20479;-85
2021/06/20 09:36:09;;;;;;;13.20;3.00;;;32.60;29.10;;;;;;5056844;28;20460;-86
2021/06/20 09:38:40;;;;;;;12.30;4.60;;;32.40;29.10;;;;;;5055770;28;20456;-85
2021/06/20 09:41:09;;;;;;;9.20;3.13;;;32.80;29.60;;;;;;5056084;28;20488;-85
2021/06/20 09:43:38;;;;;;;18.10;4.37;;;33.30;28.70;;;;;;5054872;28;20539;-85
2021/06/20 09:46:05;;;;;;;9.03;3.23;;;33.70;28.00;;;;;;5056275;28;20443;-85
2021/06/20 09:48:34;;;;;;;14.17;3.50;;;33.60;27.50;;;;;;5055051;28;20445;-86
2021/06/20 09:51:12;;;;;;;13.60;3.40;;;33.50;27.50;;;;;;5051628;28;20928;-85
2021/06/20 09:53:43;;;;;;;7.80;2.70;;;33.50;28.10;;;;;;5054074;28;20514;-86
2021/06/20 09:56:21;;;;;;;11.03;3.00;;;33.90;27.40;;;;;;5054340;28;20543;-86
2021/06/20 09:58:56;;;;;;;6.03;2.93;;;33.50;27.60;;;;;;5054323;28;20444;-87
2021/06/20 10:01:24;;;;;;;14.40;3.20;;;33.80;27.90;;;;;;5054400;28;20507;-86
2021/06/20 10:03:51;;;;;;;9.03;2.70;;;34.10;27.00;;;;;;5059065;28;20452;-86
2021/06/20 10:06:18;;;;;;;14.53;3.20;;;34.30;24.10;;;;;;5070767;28;20436;-86
2021/06/20 10:08:50;;;;;;;8.00;2.53;;;34.30;23.60;;;;;;5071872;28;20428;-86
2021/06/20 10:11:18;;;;;;;10.20;3.57;;;33.80;23.60;;;;;;5048192;28;20484;-86
2021/06/20 10:13:46;;;;;;;17.33;3.30;;;34.10;23.20;;;;;;5056905;28;20436;-86
2021/06/20 10:16:20;;;;;;;24.77;3.47;;;34.30;23.50;;;;;;5055678;28;20436;-86
2021/06/20 10:18:54;;;;;;;33.67;4.10;;;34.60;22.70;;;;;;5056274;28;20490;-86
2021/06/20 10:21:33;;;;;;;24.37;4.07;;;34.70;22.80;;;;;;5055898;28;20959;-85
2021/06/20 10:24:06;;;;;;;19.90;3.73;;;34.50;22.70;;;;;;5055945;28;20535;-85
2021/06/20 10:26:34;;;;;;;22.13;3.93;;;34.70;23.20;;;;;;5072174;28;20485;-86
2021/06/20 10:29:03;;;;;;;20.33;3.20;;;34.80;22.70;;;;;;5063381;28;20456;-86
2021/06/20 10:31:37;;;;;;;9.63;2.87;;;34.40;23.10;;;;;;5056521;28;20478;-85
2021/06/20 10:34:17;;;;;;;14.93;3.40;;;34.20;23.00;;;;;;5061869;28;20447;-86
2021/06/20 10:36:45;;;;;;;16.77;3.10;;;34.00;23.00;;;;;;5060308;28;20437;-86
2021/06/20 10:39:14;;;;;;;33.07;5.40;;;34.30;23.20;;;;;;5057001;28;21062;-86
2021/06/20 10:41:42;;;;;;;24.10;4.67;;;34.20;22.70;;;;;;5056430;28;20449;-86
2021/06/20 10:44:09;;;;;;;23.80;4.07;;;34.10;23.80;;;;;;5055548;28;20448;-86
2021/06/20 10:46:38;;;;;;;16.97;3.90;;;33.90;24.20;;;;;;5056398;28;20506;-86
2021/06/20 10:49:15;;;;;;;20.63;4.53;;;33.90;24.00;;;;;;5055117;28;20452;-85
2021/06/20 10:51:43;;;;;;;20.00;4.13;;;33.80;23.90;;;;;;5054855;28;20472;-85
2021/06/20 10:54:36;;;;;;;29.67;5.20;;;33.80;24.40;;;;;;5054715;28;20448;-86
2021/06/20 10:57:25;;;;;;;31.80;5.27;;;34.10;24.90;;;;;;5054863;28;20431;-85
2021/06/20 11:00:00;;;;;;;23.57;3.90;;;34.70;24.10;;;;;;5055531;28;20483;-86
2021/06/20 11:02:46;;;;;;;31.87;4.80;;;34.70;24.40;;;;;;5054769;28;20452;-87
2021/06/20 11:05:24;;;;;;;49.07;5.30;;;34.90;24.40;;;;;;5055843;28;20443;-87
2021/06/20 11:08:05;;;;;;;27.77;5.00;;;35.20;24.10;;;;;;5055651;28;20523;-87
2021/06/20 11:10:34;;;;;;;14.23;4.20;;;34.80;24.20;;;;;;5058391;28;20417;-87
2021/06/20 11:13:04;;;;;;;23.30;4.90;;;34.60;24.50;;;;;;5061062;28;20459;-87
2021/06/20 11:15:32;;;;;;;27.13;5.50;;;34.40;25.30;;;;;;5061046;28;20491;-87
2021/06/20 11:18:07;;;;;;;22.83;5.87;;;34.60;25.40;;;;;;5061859;28;20448;-87
2021/06/20 11:20:40;;;;;;;26.33;5.50;;;34.50;24.50;;;;;;5060351;28;20517;-86
2021/06/20 11:23:10;;;;;;;30.70;5.80;;;34.50;25.00;;;;;;5058648;28;20805;-87
2021/06/20 11:25:50;;;;;;;33.87;5.23;;;34.60;25.20;;;;;;5060543;28;20447;-86
2021/06/20 11:28:19;;;;;;;28.63;5.80;;;35.10;24.20;;;;;;5059321;28;20440;-87
2021/06/20 11:30:50;;;;;;;30.80;6.33;;;34.80;24.50;;;;;;5060928;28;20444;-87
2021/06/20 11:33:25;;;;;;;40.40;6.07;;;34.60;24.30;;;;;;5062606;28;20432;-86
2021/06/20 11:35:56;;;;;;;29.43;5.70;;;34.80;24.70;;;;;;5060130;28;20452;-86
2021/06/20 11:38:32;;;;;;;41.63;5.93;;;34.60;24.70;;;;;;5059527;28;20442;-85
2021/06/20 11:41:19;;;;;;;48.67;6.30;;;34.70;24.90;;;;;;5060114;28;20570;-87
2021/06/20 11:44:06;;;;;;;44.87;6.20;;;34.80;24.80;;;;;;5062103;28;20464;-88
2021/06/20 11:46:37;;;;;;;25.73;5.60;;;34.90;24.50;;;;;;5066164;28;20428;-87
2021/06/20 11:49:06;;;;;;;41.33;6.80;;;34.70;25.30;;;;;;5066571;28;20936;-87
2021/06/20 11:51:51;;;;;;;48.60;6.67;;;34.70;24.70;;;;;;5066123;28;20535;-88
2021/06/20 11:54:24;;;;;;;48.60;7.03;;;34.80;24.40;;;;;;5066087;28;20462;-87
2021/06/20 11:56:58;;;;;;;43.40;6.60;;;34.90;24.60;;;;;;5064559;28;20444;-87
2021/06/20 11:59:39;;;;;;;36.37;7.57;;;34.90;24.80;;;;;;5061210;28;20506;-87
2021/06/20 12:02:15;;;;;;;47.13;6.60;;;34.70;24.80;;;;;;5065142;28;20531;-87
2021/06/20 12:04:45;;;;;;;40.17;5.83;;;34.90;24.50;;;;;;5067545;28;20424;-86
2021/06/20 12:07:13;;;;;;;41.30;6.87;;;35.10;24.80;;;;;;5065851;28;21028;-86
2021/06/20 12:09:42;;;;;;;42.80;6.53;;;35.10;24.60;;;;;;5065819;28;20448;-86
2021/06/20 12:12:17;;;;;;;41.80;7.50;;;35.00;24.50;;;;;;5065412;28;20464;-86
2021/06/20 12:14:58;;;;;;;24.33;5.27;;;34.80;24.90;;;;;;5061746;28;20443;-86
2021/06/20 12:17:31;;;;;;;36.67;6.27;;;35.00;24.80;;;;;;5059898;28;20820;-86
2021/06/20 12:20:01;;;;;;;49.30;7.30;;;35.00;24.60;;;;;;5059253;28;20570;-87
2021/06/20 12:22:46;;;;;;;36.30;6.60;;;34.80;25.10;;;;;;5057966;28;20551;-86
2021/06/20 12:25:14;;;;;;;46.43;7.10;;;34.80;25.00;;;;;;5057939;28;20428;-86
2021/06/20 12:27:45;;;;;;;46.43;7.43;;;34.40;25.40;;;;;;5058016;28;20432;-86
2021/06/20 12:30:15;;;;;;;46.97;7.27;;;34.10;25.60;;;;;;5059090;28;20484;-86
2021/06/20 12:32:47;;;;;;;36.40;8.00;;;34.20;25.80;;;;;;5058308;28;20499;-87
2021/06/20 12:35:24;;;;;;;44.67;7.10;;;34.50;25.20;;;;;;5057535;28;20436;-86
2021/06/20 12:37:57;;;;;;;39.67;7.70;;;34.40;25.80;;;;;;5058484;28;20440;-86
2021/06/20 12:40:31;;;;;;;42.07;7.60;;;34.20;25.50;;;;;;5057295;28;20460;-86
2021/06/20 12:43:13;;;;;;;33.33;7.97;;;34.40;25.40;;;;;;5058238;28;20463;-87
2021/06/20 12:45:43;;;;;;;45.13;8.40;;;34.10;25.60;;;;;;5057257;28;20417;-86